createdAt,value
2019-05-07T00:01:04.514Z,7.87
2019-05-07T00:03:32.836Z,7.97
2019-05-07T00:06:02.787Z,7.97
2019-05-07T00:08:32.209Z,8.00
2019-05-07T00:11:02.299Z,7.98
2019-05-07T00:13:29.963Z,7.97
2019-05-07T00:15:58.292Z,7.92
2019-05-07T00:18:26.679Z,7.93
2019-05-07T00:20:54.530Z,7.87
2019-05-07T00:23:23.294Z,7.87
2019-05-07T00:25:52.953Z,7.92
2019-05-07T00:28:23.000Z,7.82
2019-05-07T00:30:52.135Z,7.80
2019-05-07T00:33:22.558Z,7.82
2019-05-07T00:35:57.088Z,7.81
2019-05-07T00:38:26.927Z,7.73
2019-05-07T00:41:14.203Z,7.74
2019-05-07T00:43:44.024Z,7.78
2019-05-07T00:46:17.970Z,7.74
2019-05-07T00:48:46.058Z,7.77
2019-05-07T00:51:30.496Z,7.74
2019-05-07T00:53:59.851Z,7.77
2019-05-07T00:56:27.814Z,7.78
2019-05-07T00:58:55.780Z,7.78
2019-05-07T01:01:23.611Z,7.76
2019-05-07T01:03:53.368Z,7.75
2019-05-07T01:06:22.724Z,7.75
2019-05-07T01:08:52.529Z,7.73
2019-05-07T01:11:22.633Z,7.77
2019-05-07T01:13:52.051Z,7.73
2019-05-07T01:16:22.189Z,7.72
2019-05-07T01:18:50.166Z,7.68
2019-05-07T01:21:32.249Z,7.65
2019-05-07T01:24:00.030Z,7.60
2019-05-07T01:26:27.815Z,7.61
2019-05-07T01:28:59.136Z,7.58
2019-05-07T01:31:30.136Z,7.50
2019-05-07T01:34:05.280Z,7.52
2019-05-07T01:36:33.068Z,7.43
2019-05-07T01:39:02.652Z,7.43
2019-05-07T01:41:32.560Z,7.44
2019-05-07T01:44:02.064Z,7.43
2019-05-07T01:46:29.949Z,7.34
2019-05-07T01:48:57.689Z,7.31
2019-05-07T01:51:25.557Z,7.30
2019-05-07T01:53:53.390Z,7.25
2019-05-07T01:56:22.961Z,7.29
2019-05-07T01:58:52.790Z,7.25
2019-05-07T02:01:22.167Z,7.21
2019-05-07T02:03:58.040Z,7.17
2019-05-07T02:06:44.286Z,7.18
2019-05-07T02:09:22.138Z,7.17
2019-05-07T02:12:09.492Z,7.16
2019-05-07T02:14:37.235Z,7.14
2019-05-07T02:17:05.130Z,7.12
2019-05-07T02:19:33.152Z,7.10
2019-05-07T02:22:02.806Z,7.05
2019-05-07T02:24:30.802Z,7.03
2019-05-07T02:26:58.627Z,6.89
2019-05-07T02:29:26.350Z,7.04
2019-05-07T02:31:54.176Z,7.01
2019-05-07T02:34:23.434Z,6.99
2019-05-07T02:36:53.946Z,6.98
2019-05-07T02:39:37.791Z,6.96
2019-05-07T02:42:05.620Z,6.93
2019-05-07T02:44:37.843Z,6.90
2019-05-07T02:47:16.635Z,6.86
2019-05-07T02:49:53.373Z,6.78
2019-05-07T02:52:28.656Z,6.75
2019-05-07T02:55:03.966Z,6.73
2019-05-07T02:57:33.912Z,6.67
2019-05-07T03:00:04.522Z,6.65
2019-05-07T03:02:33.197Z,6.59
2019-05-07T03:05:04.843Z,6.54
2019-05-07T03:07:33.463Z,6.55
2019-05-07T03:10:03.532Z,6.58
2019-05-07T03:12:33.389Z,6.55
2019-05-07T03:15:04.132Z,6.54
2019-05-07T03:17:33.416Z,6.58
2019-05-07T03:20:03.285Z,6.57
2019-05-07T03:22:33.811Z,6.56
2019-05-07T03:25:23.133Z,6.54
2019-05-07T03:27:53.500Z,6.56
2019-05-07T03:30:35.416Z,6.55
2019-05-07T03:33:07.630Z,6.58
2019-05-07T03:35:39.144Z,6.54
2019-05-07T03:38:07.047Z,6.58
2019-05-07T03:40:35.922Z,6.57
2019-05-07T03:43:06.099Z,6.59
2019-05-07T03:45:48.650Z,6.58
2019-05-07T03:48:18.829Z,6.58
2019-05-07T03:50:46.750Z,6.59
2019-05-07T03:53:14.687Z,6.59
2019-05-07T03:55:44.604Z,6.59
2019-05-07T03:58:14.552Z,6.63
2019-05-07T04:00:44.296Z,6.64
2019-05-07T04:03:13.458Z,6.64
2019-05-07T04:05:43.352Z,6.67
2019-05-07T04:08:13.130Z,6.69
2019-05-07T04:10:43.814Z,6.66
2019-05-07T04:13:13.339Z,6.65
2019-05-07T04:15:43.817Z,6.63
2019-05-07T04:18:13.117Z,6.73
2019-05-07T04:20:43.446Z,6.73
2019-05-07T04:23:13.469Z,6.77
2019-05-07T04:25:58.301Z,6.84
2019-05-07T04:28:35.592Z,6.88
2019-05-07T04:31:03.772Z,6.95
2019-05-07T04:33:38.168Z,6.97
2019-05-07T04:36:14.295Z,7.00
2019-05-07T04:38:44.048Z,7.03
2019-05-07T04:41:13.882Z,7.10
2019-05-07T04:43:43.484Z,7.14
2019-05-07T04:46:14.367Z,7.16
2019-05-07T04:48:43.947Z,7.21
2019-05-07T04:51:14.040Z,7.21
2019-05-07T04:53:42.904Z,7.24
2019-05-07T04:56:13.840Z,7.28
2019-05-07T04:58:43.495Z,7.32
2019-05-07T05:01:13.967Z,7.34
2019-05-07T05:03:43.651Z,7.40
2019-05-07T05:06:13.596Z,7.44
2019-05-07T05:08:43.564Z,7.46
2019-05-07T05:11:12.757Z,7.48
2019-05-07T05:13:44.019Z,7.53
2019-05-07T05:16:23.751Z,7.58
2019-05-07T05:18:52.259Z,7.62
2019-05-07T05:21:37.984Z,7.68
2019-05-07T05:24:19.516Z,7.72
2019-05-07T05:26:47.270Z,7.74
2019-05-07T05:29:17.804Z,7.77
2019-05-07T05:31:45.881Z,7.77
2019-05-07T05:34:13.735Z,7.79
2019-05-07T05:36:42.460Z,7.82
2019-05-07T05:39:12.943Z,7.85
2019-05-07T05:41:42.521Z,7.86
2019-05-07T05:44:24.337Z,7.87
2019-05-07T05:46:52.560Z,7.88
2019-05-07T05:49:22.786Z,7.96
2019-05-07T05:51:57.302Z,8.07
2019-05-07T05:54:33.414Z,8.10
2019-05-07T05:57:13.207Z,8.15
2019-05-07T06:00:14.749Z,8.21
2019-05-07T06:03:07.648Z,8.30
2019-05-07T06:06:01.973Z,8.41
2019-05-07T06:08:43.293Z,8.47
2019-05-07T06:11:39.239Z,8.52
2019-05-07T06:14:26.427Z,8.58
2019-05-07T06:17:16.746Z,8.68
2019-05-07T06:20:03.055Z,8.78
2019-05-07T06:22:52.897Z,8.87
2019-05-07T06:25:24.644Z,8.96
2019-05-07T06:27:52.597Z,9.08
2019-05-07T06:30:22.714Z,9.21
2019-05-07T06:32:52.245Z,9.18
2019-05-07T06:35:20.294Z,9.24
2019-05-07T06:37:48.084Z,9.27
2019-05-07T06:40:34.515Z,9.30
2019-05-07T06:43:15.297Z,9.37
2019-05-07T06:45:47.609Z,9.39
2019-05-07T06:48:15.582Z,9.46
2019-05-07T06:50:56.136Z,9.55
2019-05-07T06:53:27.973Z,9.64
2019-05-07T06:55:56.456Z,9.71
2019-05-07T06:58:26.775Z,9.75
2019-05-07T07:01:12.113Z,9.82
2019-05-07T07:03:58.794Z,9.85
2019-05-07T07:06:29.602Z,9.90
2019-05-07T07:09:05.020Z,10.02
2019-05-07T07:11:52.792Z,10.07
2019-05-07T07:14:22.589Z,10.14
2019-05-07T07:16:49.992Z,10.23
2019-05-07T07:19:17.968Z,10.41
2019-05-07T07:21:45.793Z,10.48
2019-05-07T07:24:13.574Z,10.50
2019-05-07T07:26:42.254Z,10.57
2019-05-07T07:29:12.732Z,10.66
2019-05-07T07:31:52.793Z,10.71
2019-05-07T07:34:22.741Z,10.75
2019-05-07T07:37:15.817Z,10.74
2019-05-07T07:39:43.897Z,10.75
2019-05-07T07:42:12.664Z,10.79
2019-05-07T07:44:42.563Z,10.87
2019-05-07T07:47:10.143Z,10.98
2019-05-07T07:49:38.095Z,11.00
2019-05-07T07:52:05.963Z,11.10
2019-05-07T07:54:33.740Z,11.28
2019-05-07T07:57:33.168Z,11.40
2019-05-07T08:00:15.272Z,11.48
2019-05-07T08:02:46.487Z,11.52
2019-05-07T08:05:14.515Z,11.59
2019-05-07T08:07:42.691Z,11.70
2019-05-07T08:10:12.885Z,11.79
2019-05-07T08:12:42.180Z,11.87
2019-05-07T08:15:18.126Z,11.97
2019-05-07T08:17:41.895Z,12.05
2019-05-07T08:20:12.662Z,12.07
2019-05-07T08:22:42.323Z,12.13
2019-05-07T08:25:12.514Z,12.26
2019-05-07T08:27:41.971Z,12.30
2019-05-07T08:30:13.975Z,12.41
2019-05-07T08:33:14.815Z,12.54
2019-05-07T08:36:07.684Z,12.61
2019-05-07T08:38:49.097Z,12.66
2019-05-07T08:41:17.337Z,12.79
2019-05-07T08:43:45.141Z,12.81
2019-05-07T08:46:35.057Z,12.96
2019-05-07T08:49:02.979Z,12.99
2019-05-07T08:51:32.596Z,13.09
2019-05-07T08:54:06.445Z,13.31
2019-05-07T08:56:35.660Z,13.35
2019-05-07T08:59:04.250Z,13.41
2019-05-07T09:01:32.645Z,13.45
2019-05-07T09:04:02.485Z,13.44
2019-05-07T09:06:45.163Z,13.53
2019-05-07T09:09:13.114Z,13.62
2019-05-07T09:11:42.597Z,13.87
2019-05-07T09:14:12.600Z,14.12
2019-05-07T09:16:42.641Z,14.18
2019-05-07T09:19:12.602Z,14.17
2019-05-07T09:21:42.608Z,14.20
2019-05-07T09:24:12.163Z,14.22
2019-05-07T09:26:48.933Z,14.15
2019-05-07T09:29:28.605Z,13.98
2019-05-07T09:32:18.406Z,13.97
2019-05-07T09:34:47.062Z,13.85
2019-05-07T09:37:18.869Z,13.74
2019-05-07T09:39:46.797Z,13.66
2019-05-07T09:42:14.702Z,13.78
2019-05-07T09:44:42.563Z,13.81
2019-05-07T09:47:12.778Z,13.81
2019-05-07T09:49:41.929Z,13.85
2019-05-07T09:52:12.138Z,13.80
2019-05-07T09:54:39.576Z,13.80
2019-05-07T09:57:22.743Z,13.74
2019-05-07T09:59:37.367Z,13.69
2019-05-07T10:02:05.403Z,13.68
2019-05-07T10:04:33.426Z,13.70
2019-05-07T10:07:02.605Z,14.08
2019-05-07T10:09:32.862Z,14.30
2019-05-07T10:12:12.052Z,14.30
2019-05-07T10:14:41.950Z,14.40
2019-05-07T10:17:15.720Z,14.31
2019-05-07T10:19:43.645Z,14.51
2019-05-07T10:22:12.588Z,14.51
2019-05-07T10:24:41.932Z,14.63
2019-05-07T10:27:12.479Z,14.63
2019-05-07T10:29:40.017Z,14.55
2019-05-07T10:32:07.835Z,14.61
2019-05-07T10:34:35.726Z,14.72
2019-05-07T10:37:03.750Z,14.72
2019-05-07T10:39:33.895Z,14.44
2019-05-07T10:42:01.953Z,14.44
2019-05-07T10:44:35.411Z,14.12
2019-05-07T10:47:22.289Z,14.12
2019-05-07T10:50:11.792Z,14.08
2019-05-07T10:52:39.525Z,13.70
2019-05-07T10:55:08.135Z,13.60
2019-05-07T10:57:35.818Z,13.58
2019-05-07T11:00:04.703Z,13.32
2019-05-07T11:02:32.631Z,13.02
2019-05-07T11:05:02.334Z,12.87
2019-05-07T11:07:30.054Z,12.87
2019-05-07T11:09:57.872Z,13.64
2019-05-07T11:12:25.595Z,13.64
2019-05-07T11:14:53.367Z,13.99
2019-05-07T11:17:39.271Z,14.56
2019-05-07T11:20:08.092Z,14.56
2019-05-07T11:22:35.817Z,14.80
2019-05-07T11:25:03.846Z,14.89
2019-05-07T11:27:32.990Z,14.79
2019-05-07T11:30:02.710Z,14.57
2019-05-07T11:32:32.134Z,14.49
2019-05-07T11:35:00.312Z,14.41
2019-05-07T11:37:28.233Z,14.41
2019-05-07T11:39:56.008Z,14.41
2019-05-07T11:42:45.121Z,14.39
2019-05-07T11:45:19.095Z,14.38
2019-05-07T11:47:46.898Z,14.31
2019-05-07T11:50:42.139Z,14.23
2019-05-07T11:53:10.757Z,14.13
2019-05-07T11:55:38.646Z,14.53
2019-05-07T11:58:06.360Z,14.67
2019-05-07T12:00:51.967Z,14.76
2019-05-07T12:03:21.974Z,14.63
2019-05-07T12:05:49.595Z,14.91
2019-05-07T12:08:17.518Z,14.91
2019-05-07T12:10:45.299Z,15.24
2019-05-07T12:13:13.176Z,15.50
2019-05-07T12:15:42.786Z,15.65
2019-05-07T12:18:11.878Z,15.66
2019-05-07T12:20:40.010Z,15.77
2019-05-07T12:23:07.744Z,15.77
2019-05-07T12:25:35.575Z,15.89
2019-05-07T12:28:03.532Z,16.04
2019-05-07T12:30:53.975Z,16.08
2019-05-07T12:33:44.061Z,16.23
2019-05-07T12:36:12.720Z,16.50
2019-05-07T12:38:41.735Z,16.68
2019-05-07T12:41:28.028Z,16.89
2019-05-07T12:43:55.752Z,17.20
2019-05-07T12:46:23.714Z,17.20
2019-05-07T12:48:52.369Z,17.08
2019-05-07T12:51:31.645Z,16.79
2019-05-07T12:53:56.148Z,16.56
2019-05-07T12:56:23.930Z,16.50
2019-05-07T12:58:51.857Z,16.11
2019-05-07T13:01:36.574Z,15.96
2019-05-07T13:04:07.233Z,15.83
2019-05-07T13:06:40.208Z,15.62
2019-05-07T13:09:08.257Z,15.65
2019-05-07T13:11:36.009Z,15.64
2019-05-07T13:14:03.985Z,15.63
2019-05-07T13:16:32.422Z,15.55
2019-05-07T13:19:01.925Z,15.56
2019-05-07T13:21:31.786Z,15.49
2019-05-07T13:23:59.367Z,15.49
2019-05-07T13:26:27.326Z,15.47
2019-05-07T13:28:55.082Z,15.38
2019-05-07T13:31:27.503Z,15.19
2019-05-07T13:33:55.925Z,15.19
2019-05-07T13:36:24.502Z,15.43
2019-05-07T13:39:14.819Z,15.33
2019-05-07T13:42:02.127Z,15.37
2019-05-07T13:44:44.662Z,15.37
2019-05-07T13:47:30.017Z,15.34
2019-05-07T13:49:58.432Z,15.36
2019-05-07T13:52:26.319Z,15.28
2019-05-07T13:54:54.831Z,15.21
2019-05-07T13:57:23.184Z,15.10
2019-05-07T13:59:53.031Z,15.17
2019-05-07T14:02:22.899Z,15.14
2019-05-07T14:04:52.653Z,15.28
2019-05-07T14:07:21.762Z,15.33
2019-05-07T14:09:52.496Z,15.35
2019-05-07T14:12:20.008Z,15.32
2019-05-07T14:14:47.854Z,15.34
2019-05-07T14:17:15.557Z,15.34
2019-05-07T14:19:43.309Z,15.29
2019-05-07T14:22:17.898Z,15.26
2019-05-07T14:24:42.260Z,15.30
2019-05-07T14:27:10.155Z,15.30
2019-05-07T14:29:37.916Z,15.29
2019-05-07T14:32:21.193Z,15.18
2019-05-07T14:35:22.566Z,15.12
2019-05-07T14:38:18.822Z,15.04
2019-05-07T14:40:46.760Z,14.98
2019-05-07T14:43:22.014Z,14.88
2019-05-07T14:45:49.849Z,14.88
2019-05-07T14:48:17.796Z,14.90
2019-05-07T14:50:45.791Z,14.89
2019-05-07T14:53:13.802Z,14.89
2019-05-07T14:55:41.964Z,14.88
2019-05-07T14:58:12.240Z,14.91
2019-05-07T15:00:42.744Z,14.89
2019-05-07T15:03:12.469Z,14.91
2019-05-07T15:05:42.253Z,14.92
2019-05-07T15:08:13.522Z,14.82
2019-05-07T15:10:41.840Z,14.80
2019-05-07T15:13:09.980Z,14.76
2019-05-07T15:15:37.971Z,14.70
2019-05-07T15:18:15.781Z,14.65
2019-05-07T15:20:43.107Z,14.07
2019-05-07T15:23:18.956Z,13.34
2019-05-07T15:25:47.746Z,13.34
2019-05-07T15:28:16.246Z,13.41
2019-05-07T15:30:56.483Z,13.39
2019-05-07T15:33:24.406Z,13.38
2019-05-07T15:35:52.383Z,13.18
2019-05-07T15:38:21.706Z,13.14
2019-05-07T15:40:51.927Z,13.26
2019-05-07T15:43:19.985Z,13.26
2019-05-07T15:45:47.765Z,13.27
2019-05-07T15:48:15.484Z,13.11
2019-05-07T15:50:43.381Z,13.24
2019-05-07T15:53:28.236Z,13.26
2019-05-07T15:55:56.930Z,13.39
2019-05-07T15:58:25.160Z,13.42
2019-05-07T16:00:52.964Z,13.42
2019-05-07T16:03:26.147Z,13.39
2019-05-07T16:05:54.308Z,13.55
2019-05-07T16:08:22.919Z,13.55
2019-05-07T16:10:52.960Z,13.60
2019-05-07T16:13:24.779Z,13.71
2019-05-07T16:15:52.956Z,13.74
2019-05-07T16:18:25.429Z,13.77
2019-05-07T16:21:04.949Z,13.77
2019-05-07T16:23:33.112Z,13.91
2019-05-07T16:26:02.408Z,13.95
2019-05-07T16:28:32.432Z,13.95
2019-05-07T16:31:02.428Z,13.98
2019-05-07T16:33:31.993Z,13.97
2019-05-07T16:35:59.593Z,13.97
2019-05-07T16:38:27.413Z,13.97
2019-05-07T16:40:55.360Z,13.95
2019-05-07T16:43:23.554Z,13.90
2019-05-07T16:45:51.847Z,13.92
2019-05-07T16:48:19.694Z,13.92
2019-05-07T16:50:47.488Z,13.95
2019-05-07T16:53:26.560Z,13.92
2019-05-07T16:55:45.424Z,13.88
2019-05-07T16:58:35.786Z,13.88
2019-05-07T17:01:07.041Z,13.86
2019-05-07T17:03:42.689Z,13.82
2019-05-07T17:06:12.394Z,13.82
2019-05-07T17:08:53.996Z,13.81
2019-05-07T17:11:22.632Z,13.89
2019-05-07T17:13:51.915Z,13.94
2019-05-07T17:16:20.148Z,13.92
2019-05-07T17:18:47.947Z,13.92
2019-05-07T17:21:16.469Z,13.98
2019-05-07T17:23:44.855Z,13.93
2019-05-07T17:26:12.848Z,13.91
2019-05-07T17:28:42.549Z,13.89
2019-05-07T17:31:12.413Z,13.89
2019-05-07T17:33:42.453Z,13.88
2019-05-07T17:36:12.130Z,13.84
2019-05-07T17:38:40.162Z,13.81
2019-05-07T17:41:13.074Z,13.81
2019-05-07T17:43:37.718Z,13.73
2019-05-07T17:46:05.454Z,13.73
2019-05-07T17:48:33.715Z,13.73
2019-05-07T17:51:23.852Z,13.66
2019-05-07T17:53:59.752Z,13.61
2019-05-07T17:56:22.475Z,13.61
2019-05-07T17:58:52.226Z,13.54
2019-05-07T18:01:24.733Z,13.54
2019-05-07T18:03:52.527Z,13.47
2019-05-07T18:06:20.544Z,13.47
2019-05-07T18:08:48.316Z,13.42
2019-05-07T18:11:21.206Z,13.42
2019-05-07T18:13:46.543Z,13.35
2019-05-07T18:16:24.971Z,13.35
2019-05-07T18:18:53.449Z,13.28
2019-05-07T18:21:22.045Z,13.25
2019-05-07T18:23:51.753Z,13.49
2019-05-07T18:26:28.062Z,13.84
2019-05-07T18:28:49.451Z,14.42
2019-05-07T18:31:22.015Z,14.42
2019-05-07T18:33:55.715Z,14.65
2019-05-07T18:36:23.582Z,14.89
2019-05-07T18:38:52.869Z,14.89
2019-05-07T18:41:22.333Z,15.05
2019-05-07T18:43:54.382Z,15.05
2019-05-07T18:46:22.056Z,15.09
2019-05-07T18:48:51.824Z,15.15
2019-05-07T18:51:19.772Z,15.14
2019-05-07T18:53:47.734Z,15.17
2019-05-07T18:56:15.452Z,15.18
2019-05-07T18:58:43.275Z,15.21
2019-05-07T19:01:12.412Z,15.25
2019-05-07T19:03:41.961Z,15.10
2019-05-07T19:06:13.456Z,14.66
2019-05-07T19:08:42.210Z,14.34
2019-05-07T19:11:12.259Z,14.06
2019-05-07T19:13:42.040Z,13.85
2019-05-07T19:16:12.511Z,13.65
2019-05-07T19:18:40.078Z,13.54
2019-05-07T19:21:07.937Z,13.42
2019-05-07T19:23:36.338Z,13.27
2019-05-07T19:26:04.503Z,13.27
2019-05-07T19:28:33.012Z,13.10
2019-05-07T19:31:00.993Z,13.10
2019-05-07T19:33:28.727Z,13.08
2019-05-07T19:35:57.016Z,12.98
2019-05-07T19:38:24.744Z,12.98
2019-05-07T19:40:52.885Z,12.92
2019-05-07T19:43:20.862Z,12.86
2019-05-07T19:45:48.856Z,12.80
2019-05-07T19:48:16.571Z,12.74
2019-05-07T19:50:44.860Z,12.67
2019-05-07T19:53:12.931Z,12.63
2019-05-07T19:55:58.728Z,12.63
2019-05-07T19:58:26.580Z,12.54
2019-05-07T20:00:57.216Z,12.54
2019-05-07T20:03:36.554Z,12.52
2019-05-07T20:06:04.741Z,12.40
2019-05-07T20:08:32.931Z,12.40
2019-05-07T20:11:15.855Z,12.27
2019-05-07T20:13:44.894Z,12.27
2019-05-07T20:16:17.057Z,12.24
2019-05-07T20:18:45.474Z,12.24
2019-05-07T20:21:13.868Z,12.20
2019-05-07T20:23:43.220Z,12.16
2019-05-07T20:26:12.577Z,12.12
2019-05-07T20:28:41.757Z,12.08
2019-05-07T20:31:11.646Z,12.03
2019-05-07T20:33:39.505Z,12.03
2019-05-07T20:36:07.392Z,11.97
2019-05-07T20:38:36.933Z,11.95
2019-05-07T20:41:06.682Z,11.95
2019-05-07T20:43:35.562Z,11.90
2019-05-07T20:46:03.545Z,11.90
2019-05-07T20:48:32.437Z,11.90
2019-05-07T20:51:00.759Z,11.86
2019-05-07T20:53:48.072Z,11.83
2019-05-07T20:56:17.299Z,11.79
2019-05-07T20:58:45.730Z,11.77
2019-05-07T21:01:13.509Z,11.78
2019-05-07T21:03:42.908Z,11.72
2019-05-07T21:06:10.916Z,11.77
2019-05-07T21:08:38.638Z,11.78
2019-05-07T21:11:06.609Z,11.77
2019-05-07T21:13:35.054Z,11.75
2019-05-07T21:16:03.432Z,11.67
2019-05-07T21:18:32.690Z,11.67
2019-05-07T21:21:02.118Z,11.63
2019-05-07T21:23:32.424Z,11.61
2019-05-07T21:26:01.954Z,11.56
2019-05-07T21:28:29.661Z,11.49
2019-05-07T21:30:57.530Z,11.48
2019-05-07T21:33:25.258Z,11.44
2019-05-07T21:35:53.038Z,11.40
2019-05-07T21:38:22.331Z,11.36
2019-05-07T21:40:50.543Z,11.33
2019-05-07T21:43:18.327Z,11.29
2019-05-07T21:45:46.261Z,11.25
2019-05-07T21:48:13.978Z,11.22
2019-05-07T21:50:41.858Z,11.17
2019-05-07T21:53:16.708Z,11.11
2019-05-07T21:56:03.047Z,11.07
2019-05-07T21:58:40.822Z,11.03
2019-05-07T22:01:43.415Z,10.99
2019-05-07T22:04:12.490Z,10.93
2019-05-07T22:06:40.012Z,10.90
2019-05-07T22:09:08.430Z,10.85
2019-05-07T22:11:36.475Z,10.82
2019-05-07T22:14:04.517Z,10.79
2019-05-07T22:16:33.020Z,10.79
2019-05-07T22:19:02.631Z,10.71
2019-05-07T22:21:33.893Z,10.66
2019-05-07T22:24:02.645Z,10.61
2019-05-07T22:26:32.020Z,10.55
2019-05-07T22:28:59.664Z,10.50
2019-05-07T22:31:37.246Z,10.44
2019-05-07T22:34:33.791Z,10.36
2019-05-07T22:37:03.284Z,10.31
2019-05-07T22:39:32.744Z,10.20
2019-05-07T22:42:03.764Z,10.14
2019-05-07T22:44:32.247Z,10.06
2019-05-07T22:47:12.369Z,10.02
2019-05-07T22:49:41.992Z,9.98
2019-05-07T22:52:09.729Z,9.93
2019-05-07T22:54:37.450Z,9.90
2019-05-07T22:57:14.032Z,9.86
2019-05-07T22:59:40.587Z,9.81
2019-05-07T23:02:08.421Z,9.77
2019-05-07T23:04:36.195Z,9.73
2019-05-07T23:07:04.045Z,9.70
2019-05-07T23:09:31.814Z,9.67
2019-05-07T23:12:01.746Z,9.61
2019-05-07T23:14:29.215Z,9.59
2019-05-07T23:16:56.950Z,9.55
2019-05-07T23:19:24.720Z,9.48
2019-05-07T23:21:52.451Z,9.38
2019-05-07T23:24:22.582Z,9.36
2019-05-07T23:26:53.309Z,9.38
2019-05-07T23:29:22.557Z,9.34
2019-05-07T23:31:52.952Z,9.37
2019-05-07T23:34:21.955Z,9.34
2019-05-07T23:36:49.640Z,9.28
2019-05-07T23:39:19.448Z,9.25
2019-05-07T23:41:57.626Z,9.23
2019-05-07T23:44:25.469Z,9.21
2019-05-07T23:46:53.276Z,9.20
2019-05-07T23:49:23.250Z,9.18
2019-05-07T23:51:53.054Z,9.18
2019-05-07T23:54:22.972Z,9.13
2019-05-07T23:57:02.907Z,9.11
2019-05-07T23:59:22.177Z,9.09
